sensor_id;sensor_type;location;lat;lon;timestamp;P1;durP1;ratioP1;P2;durP2;ratioP2
47762;SDS011;33526;42.690;23.322;2022-12-16T00:00:11;235.52;;;113.30;;
47762;SDS011;33526;42.690;23.322;2022-12-16T00:02:37;225.00;;;106.32;;
47762;SDS011;33526;42.690;23.322;2022-12-16T00:05:04;232.10;;;108.90;;
47762;SDS011;33526;42.690;23.322;2022-12-16T00:07:32;217.27;;;108.70;;
47762;SDS011;33526;42.690;23.322;2022-12-16T00:09:57;218.55;;;108.35;;
47762;SDS011;33526;42.690;23.322;2022-12-16T00:12:23;226.40;;;107.88;;
47762;SDS011;33526;42.690;23.322;2022-12-16T00:14:48;239.05;;;113.03;;
47762;SDS011;33526;42.690;23.322;2022-12-16T00:17:14;241.80;;;110.95;;
47762;SDS011;33526;42.690;23.322;2022-12-16T00:19:39;238.77;;;112.13;;
47762;SDS011;33526;42.690;23.322;2022-12-16T00:22:05;225.63;;;112.32;;
47762;SDS011;33526;42.690;23.322;2022-12-16T00:24:30;236.38;;;114.82;;
47762;SDS011;33526;42.690;23.322;2022-12-16T00:26:56;247.30;;;115.93;;
47762;SDS011;33526;42.690;23.322;2022-12-16T00:29:21;252.00;;;121.78;;
47762;SDS011;33526;42.690;23.322;2022-12-16T00:34:15;251.35;;;115.75;;
47762;SDS011;33526;42.690;23.322;2022-12-16T00:36:43;257.90;;;118.72;;
47762;SDS011;33526;42.690;23.322;2022-12-16T00:39:09;263.42;;;117.55;;
47762;SDS011;33526;42.690;23.322;2022-12-16T00:41:35;254.48;;;119.93;;
47762;SDS011;33526;42.690;23.322;2022-12-16T00:44:01;254.60;;;118.78;;
47762;SDS011;33526;42.690;23.322;2022-12-16T00:46:27;248.82;;;113.05;;
47762;SDS011;33526;42.690;23.322;2022-12-16T00:48:53;251.57;;;108.82;;
47762;SDS011;33526;42.690;23.322;2022-12-16T00:51:19;236.30;;;107.22;;
47762;SDS011;33526;42.690;23.322;2022-12-16T00:53:44;264.77;;;118.25;;
47762;SDS011;33526;42.690;23.322;2022-12-16T00:56:10;268.52;;;116.28;;
47762;SDS011;33526;42.690;23.322;2022-12-16T00:58:38;285.23;;;118.82;;
47762;SDS011;33526;42.690;23.322;2022-12-16T01:01:05;256.17;;;114.67;;
47762;SDS011;33526;42.690;23.322;2022-12-16T01:03:31;273.20;;;115.07;;
47762;SDS011;33526;42.690;23.322;2022-12-16T01:05:56;270.35;;;117.88;;
47762;SDS011;33526;42.690;23.322;2022-12-16T01:08:22;260.20;;;113.00;;
47762;SDS011;33526;42.690;23.322;2022-12-16T01:10:51;279.20;;;113.65;;
47762;SDS011;33526;42.690;23.322;2022-12-16T01:13:17;291.95;;;115.85;;
47762;SDS011;33526;42.690;23.322;2022-12-16T01:15:44;257.95;;;109.75;;
47762;SDS011;33526;42.690;23.322;2022-12-16T01:18:09;274.40;;;113.30;;
47762;SDS011;33526;42.690;23.322;2022-12-16T01:20:35;280.42;;;113.90;;
47762;SDS011;33526;42.690;23.322;2022-12-16T01:23:00;260.80;;;109.20;;
47762;SDS011;33526;42.690;23.322;2022-12-16T01:25:26;258.83;;;102.75;;
47762;SDS011;33526;42.690;23.322;2022-12-16T01:27:51;241.40;;;101.30;;
47762;SDS011;33526;42.690;23.322;2022-12-16T01:30:16;248.88;;;102.45;;
47762;SDS011;33526;42.690;23.322;2022-12-16T01:32:42;231.15;;;97.90;;
47762;SDS011;33526;42.690;23.322;2022-12-16T01:35:08;248.65;;;100.30;;
47762;SDS011;33526;42.690;23.322;2022-12-16T01:37:34;259.90;;;98.43;;
47762;SDS011;33526;42.690;23.322;2022-12-16T01:39:59;251.88;;;98.90;;
47762;SDS011;33526;42.690;23.322;2022-12-16T01:42:25;244.68;;;97.55;;
47762;SDS011;33526;42.690;23.322;2022-12-16T01:44:55;256.15;;;102.85;;
47762;SDS011;33526;42.690;23.322;2022-12-16T01:47:30;260.98;;;101.03;;
47762;SDS011;33526;42.690;23.322;2022-12-16T01:49:58;247.95;;;98.45;;
47762;SDS011;33526;42.690;23.322;2022-12-16T01:52:35;238.75;;;95.90;;
47762;SDS011;33526;42.690;23.322;2022-12-16T01:55:08;243.32;;;100.65;;
47762;SDS011;33526;42.690;23.322;2022-12-16T01:57:40;260.33;;;100.32;;
47762;SDS011;33526;42.690;23.322;2022-12-16T02:00:11;251.55;;;104.30;;
47762;SDS011;33526;42.690;23.322;2022-12-16T02:02:37;253.47;;;105.50;;
47762;SDS011;33526;42.690;23.322;2022-12-16T02:05:03;244.93;;;102.30;;
47762;SDS011;33526;42.690;23.322;2022-12-16T02:08:09;259.38;;;107.43;;
47762;SDS011;33526;42.690;23.322;2022-12-16T02:13:02;247.18;;;104.43;;
47762;SDS011;33526;42.690;23.322;2022-12-16T02:21:49;222.63;;;97.00;;
47762;SDS011;33526;42.690;23.322;2022-12-16T02:38:00;218.15;;;83.45;;
47762;SDS011;33526;42.690;23.322;2022-12-16T02:40:54;190.63;;;81.10;;
47762;SDS011;33526;42.690;23.322;2022-12-16T02:46:14;189.75;;;76.55;;
47762;SDS011;33526;42.690;23.322;2022-12-16T02:48:41;187.40;;;79.53;;
47762;SDS011;33526;42.690;23.322;2022-12-16T02:51:06;177.98;;;73.80;;
47762;SDS011;33526;42.690;23.322;2022-12-16T02:53:33;183.68;;;77.25;;
47762;SDS011;33526;42.690;23.322;2022-12-16T02:58:54;188.75;;;77.88;;
47762;SDS011;33526;42.690;23.322;2022-12-16T03:04:34;185.93;;;75.10;;
47762;SDS011;33526;42.690;23.322;2022-12-16T03:07:08;195.68;;;78.70;;
47762;SDS011;33526;42.690;23.322;2022-12-16T03:09:37;174.80;;;74.70;;
47762;SDS011;33526;42.690;23.322;2022-12-16T03:12:06;163.60;;;68.50;;
47762;SDS011;33526;42.690;23.322;2022-12-16T03:14:35;160.48;;;66.97;;
47762;SDS011;33526;42.690;23.322;2022-12-16T03:17:04;167.43;;;68.28;;
47762;SDS011;33526;42.690;23.322;2022-12-16T03:19:32;158.63;;;65.85;;
47762;SDS011;33526;42.690;23.322;2022-12-16T03:22:02;129.18;;;58.08;;
47762;SDS011;33526;42.690;23.322;2022-12-16T03:24:35;141.50;;;61.15;;
47762;SDS011;33526;42.690;23.322;2022-12-16T03:27:13;141.55;;;61.88;;
47762;SDS011;33526;42.690;23.322;2022-12-16T03:29:52;147.02;;;66.45;;
47762;SDS011;33526;42.690;23.322;2022-12-16T03:35:32;155.75;;;67.35;;
47762;SDS011;33526;42.690;23.322;2022-12-16T03:38:02;165.48;;;68.00;;
47762;SDS011;33526;42.690;23.322;2022-12-16T03:40:30;163.93;;;68.20;;
47762;SDS011;33526;42.690;23.322;2022-12-16T03:42:57;158.30;;;66.35;;
47762;SDS011;33526;42.690;23.322;2022-12-16T03:45:26;147.32;;;64.03;;
47762;SDS011;33526;42.690;23.322;2022-12-16T03:47:56;134.00;;;58.10;;
47762;SDS011;33526;42.690;23.322;2022-12-16T03:50:24;117.18;;;53.15;;
47762;SDS011;33526;42.690;23.322;2022-12-16T03:52:53;112.82;;;49.13;;
47762;SDS011;33526;42.690;23.322;2022-12-16T03:55:19;111.63;;;50.05;;
47762;SDS011;33526;42.690;23.322;2022-12-16T03:57:44;114.28;;;48.50;;
47762;SDS011;33526;42.690;23.322;2022-12-16T04:00:10;115.93;;;51.00;;
47762;SDS011;33526;42.690;23.322;2022-12-16T04:02:36;86.57;;;36.83;;
47762;SDS011;33526;42.690;23.322;2022-12-16T04:05:01;108.97;;;48.53;;
47762;SDS011;33526;42.690;23.322;2022-12-16T04:07:27;112.22;;;50.05;;
47762;SDS011;33526;42.690;23.322;2022-12-16T04:09:52;108.45;;;49.95;;
47762;SDS011;33526;42.690;23.322;2022-12-16T04:12:19;115.75;;;50.85;;
47762;SDS011;33526;42.690;23.322;2022-12-16T04:15:04;103.57;;;50.50;;
47762;SDS011;33526;42.690;23.322;2022-12-16T04:17:48;111.50;;;49.58;;
47762;SDS011;33526;42.690;23.322;2022-12-16T04:20:34;116.78;;;51.83;;
47762;SDS011;33526;42.690;23.322;2022-12-16T04:23:19;102.53;;;46.83;;
47762;SDS011;33526;42.690;23.322;2022-12-16T04:26:14;104.70;;;47.42;;
47762;SDS011;33526;42.690;23.322;2022-12-16T04:28:40;106.55;;;46.22;;
47762;SDS011;33526;42.690;23.322;2022-12-16T04:31:05;99.25;;;45.90;;
47762;SDS011;33526;42.690;23.322;2022-12-16T04:33:31;97.13;;;45.83;;
47762;SDS011;33526;42.690;23.322;2022-12-16T04:36:15;90.15;;;43.30;;
47762;SDS011;33526;42.690;23.322;2022-12-16T04:38:59;91.65;;;44.92;;
47762;SDS011;33526;42.690;23.322;2022-12-16T04:41:43;93.50;;;42.95;;
47762;SDS011;33526;42.690;23.322;2022-12-16T04:44:27;93.50;;;43.10;;
47762;SDS011;33526;42.690;23.322;2022-12-16T04:47:11;90.80;;;41.80;;
47762;SDS011;33526;42.690;23.322;2022-12-16T04:49:55;88.65;;;39.72;;
47762;SDS011;33526;42.690;23.322;2022-12-16T04:52:39;81.30;;;40.13;;
47762;SDS011;33526;42.690;23.322;2022-12-16T04:55:23;85.43;;;40.00;;
47762;SDS011;33526;42.690;23.322;2022-12-16T04:58:06;89.22;;;39.80;;
47762;SDS011;33526;42.690;23.322;2022-12-16T05:00:50;86.05;;;40.08;;
47762;SDS011;33526;42.690;23.322;2022-12-16T05:03:34;80.45;;;38.28;;
47762;SDS011;33526;42.690;23.322;2022-12-16T05:06:18;83.18;;;39.47;;
47762;SDS011;33526;42.690;23.322;2022-12-16T05:09:03;84.57;;;38.40;;
47762;SDS011;33526;42.690;23.322;2022-12-16T05:11:48;81.47;;;36.83;;
47762;SDS011;33526;42.690;23.322;2022-12-16T05:14:32;76.28;;;35.58;;
47762;SDS011;33526;42.690;23.322;2022-12-16T05:17:16;82.40;;;36.80;;
47762;SDS011;33526;42.690;23.322;2022-12-16T05:20:02;83.65;;;36.50;;
47762;SDS011;33526;42.690;23.322;2022-12-16T05:22:48;87.53;;;38.13;;
47762;SDS011;33526;42.690;23.322;2022-12-16T05:25:32;86.78;;;40.22;;
47762;SDS011;33526;42.690;23.322;2022-12-16T05:28:16;84.35;;;38.92;;
47762;SDS011;33526;42.690;23.322;2022-12-16T05:31:00;82.60;;;37.60;;
47762;SDS011;33526;42.690;23.322;2022-12-16T05:33:44;81.25;;;37.65;;
47762;SDS011;33526;42.690;23.322;2022-12-16T05:36:28;79.00;;;36.88;;
47762;SDS011;33526;42.690;23.322;2022-12-16T05:39:12;80.72;;;39.58;;
47762;SDS011;33526;42.690;23.322;2022-12-16T05:41:58;83.90;;;37.00;;
47762;SDS011;33526;42.690;23.322;2022-12-16T05:44:42;81.68;;;37.22;;
47762;SDS011;33526;42.690;23.322;2022-12-16T05:47:26;85.32;;;39.42;;
47762;SDS011;33526;42.690;23.322;2022-12-16T05:50:11;88.47;;;41.35;;
47762;SDS011;33526;42.690;23.322;2022-12-16T05:52:55;82.70;;;39.67;;
47762;SDS011;33526;42.690;23.322;2022-12-16T05:55:40;86.82;;;38.92;;
47762;SDS011;33526;42.690;23.322;2022-12-16T05:58:25;91.18;;;39.08;;
47762;SDS011;33526;42.690;23.322;2022-12-16T06:01:11;79.70;;;38.85;;
47762;SDS011;33526;42.690;23.322;2022-12-16T06:04:18;70.85;;;32.00;;
47762;SDS011;33526;42.690;23.322;2022-12-16T06:12:48;74.68;;;33.05;;
47762;SDS011;33526;42.690;23.322;2022-12-16T06:15:58;71.20;;;32.75;;
47762;SDS011;33526;42.690;23.322;2022-12-16T07:42:06;117.28;;;47.97;;
47762;SDS011;33526;42.690;23.322;2022-12-16T07:56:09;141.05;;;58.25;;
47762;SDS011;33526;42.690;23.322;2022-12-16T08:09:28;176.38;;;70.80;;
47762;SDS011;33526;42.690;23.322;2022-12-16T08:38:58;97.32;;;39.08;;
47762;SDS011;33526;42.690;23.322;2022-12-16T08:41:43;99.97;;;40.00;;
47762;SDS011;33526;42.690;23.322;2022-12-16T08:44:27;83.97;;;38.75;;
47762;SDS011;33526;42.690;23.322;2022-12-16T08:47:18;83.95;;;36.75;;
47762;SDS011;33526;42.690;23.322;2022-12-16T08:50:08;81.63;;;35.60;;
47762;SDS011;33526;42.690;23.322;2022-12-16T08:53:02;78.05;;;34.08;;
47762;SDS011;33526;42.690;23.322;2022-12-16T08:58:37;99.13;;;39.13;;
47762;SDS011;33526;42.690;23.322;2022-12-16T09:01:21;112.40;;;44.22;;
47762;SDS011;33526;42.690;23.322;2022-12-16T09:11:58;112.50;;;46.28;;
47762;SDS011;33526;42.690;23.322;2022-12-16T09:14:45;116.80;;;48.22;;
47762;SDS011;33526;42.690;23.322;2022-12-16T09:17:30;118.97;;;48.53;;
47762;SDS011;33526;42.690;23.322;2022-12-16T09:20:15;116.70;;;47.38;;
47762;SDS011;33526;42.690;23.322;2022-12-16T09:23:02;111.63;;;47.40;;
47762;SDS011;33526;42.690;23.322;2022-12-16T09:26:08;104.00;;;42.60;;
47762;SDS011;33526;42.690;23.322;2022-12-16T09:28:55;100.20;;;44.22;;
47762;SDS011;33526;42.690;23.322;2022-12-16T09:50:20;82.60;;;38.42;;
47762;SDS011;33526;42.690;23.322;2022-12-16T09:53:22;87.05;;;39.17;;
47762;SDS011;33526;42.690;23.322;2022-12-16T09:59:04;84.43;;;40.25;;
47762;SDS011;33526;42.690;23.322;2022-12-16T10:01:56;98.82;;;44.75;;
47762;SDS011;33526;42.690;23.322;2022-12-16T10:04:50;106.20;;;49.47;;
47762;SDS011;33526;42.690;23.322;2022-12-16T10:07:49;115.45;;;57.22;;
47762;SDS011;33526;42.690;23.322;2022-12-16T10:13:46;140.35;;;68.30;;
47762;SDS011;33526;42.690;23.322;2022-12-16T10:19:46;122.00;;;62.20;;
47762;SDS011;33526;42.690;23.322;2022-12-16T10:26:26;136.00;;;65.10;;
47762;SDS011;33526;42.690;23.322;2022-12-16T10:29:20;120.87;;;53.20;;
47762;SDS011;33526;42.690;23.322;2022-12-16T10:32:32;107.97;;;54.20;;
47762;SDS011;33526;42.690;23.322;2022-12-16T10:35:27;102.00;;;51.10;;
47762;SDS011;33526;42.690;23.322;2022-12-16T10:41:42;100.97;;;50.65;;
47762;SDS011;33526;42.690;23.322;2022-12-16T11:17:40;75.07;;;41.42;;
47762;SDS011;33526;42.690;23.322;2022-12-16T11:28:03;67.38;;;37.70;;
47762;SDS011;33526;42.690;23.322;2022-12-16T11:34:34;69.88;;;37.00;;
47762;SDS011;33526;42.690;23.322;2022-12-16T11:42:41;64.82;;;33.20;;
47762;SDS011;33526;42.690;23.322;2022-12-16T11:45:28;55.20;;;32.15;;
47762;SDS011;33526;42.690;23.322;2022-12-16T11:48:30;60.88;;;33.10;;
47762;SDS011;33526;42.690;23.322;2022-12-16T11:53:50;57.28;;;32.38;;
47762;SDS011;33526;42.690;23.322;2022-12-16T11:56:39;55.10;;;31.75;;
47762;SDS011;33526;42.690;23.322;2022-12-16T11:59:34;59.42;;;31.17;;
47762;SDS011;33526;42.690;23.322;2022-12-16T12:02:31;53.75;;;30.80;;
47762;SDS011;33526;42.690;23.322;2022-12-16T12:08:31;48.22;;;29.35;;
47762;SDS011;33526;42.690;23.322;2022-12-16T12:11:36;48.05;;;29.30;;
47762;SDS011;33526;42.690;23.322;2022-12-16T12:42:02;56.92;;;32.75;;
47762;SDS011;33526;42.690;23.322;2022-12-16T12:48:21;51.58;;;29.25;;
47762;SDS011;33526;42.690;23.322;2022-12-16T15:11:01;83.78;;;39.85;;
47762;SDS011;33526;42.690;23.322;2022-12-16T15:14:13;56.00;;;29.20;;
47762;SDS011;33526;42.690;23.322;2022-12-16T15:20:53;51.42;;;29.80;;
47762;SDS011;33526;42.690;23.322;2022-12-16T15:24:19;58.67;;;26.52;;
47762;SDS011;33526;42.690;23.322;2022-12-16T15:33:17;55.58;;;28.92;;
47762;SDS011;33526;42.690;23.322;2022-12-16T15:36:04;46.92;;;26.80;;
47762;SDS011;33526;42.690;23.322;2022-12-16T15:38:49;50.35;;;26.60;;
47762;SDS011;33526;42.690;23.322;2022-12-16T15:41:37;57.00;;;27.77;;
47762;SDS011;33526;42.690;23.322;2022-12-16T15:44:25;60.85;;;31.92;;
47762;SDS011;33526;42.690;23.322;2022-12-16T15:47:21;45.20;;;23.98;;
47762;SDS011;33526;42.690;23.322;2022-12-16T15:50:13;54.72;;;26.13;;
47762;SDS011;33526;42.690;23.322;2022-12-16T15:55:58;52.75;;;29.48;;
47762;SDS011;33526;42.690;23.322;2022-12-16T15:58:43;50.55;;;27.17;;
47762;SDS011;33526;42.690;23.322;2022-12-16T16:01:37;49.67;;;27.55;;
47762;SDS011;33526;42.690;23.322;2022-12-16T16:10:22;56.42;;;26.30;;
47762;SDS011;33526;42.690;23.322;2022-12-16T16:13:08;48.65;;;24.33;;
47762;SDS011;33526;42.690;23.322;2022-12-16T16:19:02;48.95;;;23.88;;
47762;SDS011;33526;42.690;23.322;2022-12-16T16:21:48;39.30;;;22.63;;
47762;SDS011;33526;42.690;23.322;2022-12-16T16:24:33;53.35;;;23.38;;
47762;SDS011;33526;42.690;23.322;2022-12-16T16:27:17;43.35;;;22.92;;
47762;SDS011;33526;42.690;23.322;2022-12-16T16:32:56;45.85;;;22.27;;
47762;SDS011;33526;42.690;23.322;2022-12-16T16:38:36;45.45;;;21.98;;
47762;SDS011;33526;42.690;23.322;2022-12-16T16:41:24;45.33;;;24.17;;
47762;SDS011;33526;42.690;23.322;2022-12-16T16:44:08;39.20;;;20.75;;
47762;SDS011;33526;42.690;23.322;2022-12-16T16:46:52;29.58;;;16.30;;
47762;SDS011;33526;42.690;23.322;2022-12-16T16:49:45;37.97;;;19.05;;
47762;SDS011;33526;42.690;23.322;2022-12-16T16:55:25;35.67;;;18.77;;
47762;SDS011;33526;42.690;23.322;2022-12-16T16:58:12;38.05;;;18.35;;
47762;SDS011;33526;42.690;23.322;2022-12-16T17:01:02;34.00;;;17.17;;
47762;SDS011;33526;42.690;23.322;2022-12-16T17:03:57;36.05;;;17.25;;
47762;SDS011;33526;42.690;23.322;2022-12-16T17:06:45;31.85;;;15.85;;
47762;SDS011;33526;42.690;23.322;2022-12-16T17:09:32;33.92;;;16.55;;
47762;SDS011;33526;42.690;23.322;2022-12-16T17:12:26;34.78;;;19.05;;
47762;SDS011;33526;42.690;23.322;2022-12-16T17:15:20;39.63;;;19.15;;
47762;SDS011;33526;42.690;23.322;2022-12-16T17:23:52;47.03;;;24.70;;
47762;SDS011;33526;42.690;23.322;2022-12-16T17:26:43;42.45;;;21.52;;
47762;SDS011;33526;42.690;23.322;2022-12-16T17:29:35;54.58;;;26.17;;
47762;SDS011;33526;42.690;23.322;2022-12-16T17:32:33;66.25;;;30.60;;
47762;SDS011;33526;42.690;23.322;2022-12-16T17:43:06;57.72;;;28.48;;
47762;SDS011;33526;42.690;23.322;2022-12-16T17:46:05;26.27;;;14.90;;
47762;SDS011;33526;42.690;23.322;2022-12-16T17:49:02;82.38;;;41.22;;
47762;SDS011;33526;42.690;23.322;2022-12-16T17:51:45;34.05;;;16.05;;
47762;SDS011;33526;42.690;23.322;2022-12-16T17:54:29;35.03;;;16.48;;
47762;SDS011;33526;42.690;23.322;2022-12-16T17:57:13;38.00;;;17.83;;
47762;SDS011;33526;42.690;23.322;2022-12-16T18:05:13;39.83;;;18.13;;
47762;SDS011;33526;42.690;23.322;2022-12-16T18:08:00;38.35;;;17.52;;
47762;SDS011;33526;42.690;23.322;2022-12-16T18:13:11;31.50;;;17.08;;
47762;SDS011;33526;42.690;23.322;2022-12-16T18:25:20;27.98;;;14.95;;
47762;SDS011;33526;42.690;23.322;2022-12-16T18:28:07;37.85;;;20.20;;
47762;SDS011;33526;42.690;23.322;2022-12-16T18:30:52;33.55;;;16.15;;
47762;SDS011;33526;42.690;23.322;2022-12-16T18:33:38;30.85;;;15.52;;
47762;SDS011;33526;42.690;23.322;2022-12-16T18:36:31;30.70;;;16.45;;
47762;SDS011;33526;42.690;23.322;2022-12-16T18:39:16;34.13;;;16.75;;
47762;SDS011;33526;42.690;23.322;2022-12-16T18:42:00;31.70;;;16.02;;
47762;SDS011;33526;42.690;23.322;2022-12-16T18:44:49;26.60;;;14.55;;
47762;SDS011;33526;42.690;23.322;2022-12-16T18:47:33;31.80;;;15.05;;
47762;SDS011;33526;42.690;23.322;2022-12-16T18:53:25;35.60;;;18.42;;
47762;SDS011;33526;42.690;23.322;2022-12-16T18:56:11;29.23;;;15.02;;
47762;SDS011;33526;42.690;23.322;2022-12-16T18:59:03;33.13;;;17.05;;
47762;SDS011;33526;42.690;23.322;2022-12-16T19:01:47;39.45;;;20.33;;
47762;SDS011;33526;42.690;23.322;2022-12-16T19:04:32;34.75;;;18.13;;
47762;SDS011;33526;42.690;23.322;2022-12-16T19:07:20;29.02;;;16.33;;
47762;SDS011;33526;42.690;23.322;2022-12-16T19:10:07;28.92;;;16.33;;
47762;SDS011;33526;42.690;23.322;2022-12-16T19:12:57;35.13;;;18.77;;
47762;SDS011;33526;42.690;23.322;2022-12-16T19:15:56;43.05;;;22.23;;
47762;SDS011;33526;42.690;23.322;2022-12-16T19:18:41;40.20;;;21.27;;
47762;SDS011;33526;42.690;23.322;2022-12-16T19:21:40;39.67;;;19.05;;
47762;SDS011;33526;42.690;23.322;2022-12-16T19:24:25;51.72;;;26.70;;
47762;SDS011;33526;42.690;23.322;2022-12-16T19:27:09;38.08;;;18.67;;
47762;SDS011;33526;42.690;23.322;2022-12-16T19:29:55;36.92;;;18.90;;
47762;SDS011;33526;42.690;23.322;2022-12-16T19:32:39;41.15;;;19.55;;
47762;SDS011;33526;42.690;23.322;2022-12-16T19:35:23;38.75;;;18.17;;
47762;SDS011;33526;42.690;23.322;2022-12-16T19:38:12;31.98;;;17.08;;
47762;SDS011;33526;42.690;23.322;2022-12-16T19:43:56;31.00;;;16.00;;
47762;SDS011;33526;42.690;23.322;2022-12-16T19:46:43;31.13;;;17.35;;
47762;SDS011;33526;42.690;23.322;2022-12-16T19:49:32;31.67;;;16.65;;
47762;SDS011;33526;42.690;23.322;2022-12-16T19:52:18;29.65;;;15.57;;
47762;SDS011;33526;42.690;23.322;2022-12-16T20:57:09;54.83;;;29.05;;
47762;SDS011;33526;42.690;23.322;2022-12-16T21:00:03;52.70;;;27.30;;
47762;SDS011;33526;42.690;23.322;2022-12-16T21:06:52;56.38;;;30.30;;
47762;SDS011;33526;42.690;23.322;2022-12-16T21:13:43;58.72;;;29.60;;
47762;SDS011;33526;42.690;23.322;2022-12-16T21:54:51;67.88;;;38.05;;
47762;SDS011;33526;42.690;23.322;2022-12-16T22:12:00;67.00;;;36.88;;
